Time;durP1;ratioP1;P1;durP2;ratioP2;P2;SDS_P1;SDS_P2;PMS_P1;PMS_P2;Temp;Humidity;BMP_temperature;BMP_pressure;BME280_temperature;BME280_humidity;BME280_pressure;Samples;Min_cycle;Max_cycle;Signal;HPM_P1;HPM_P2
2022/03/23 00:00:54;;;;;;;25.13;20.03;;;7.30;1.00;;;;;;6286366;28;20330;-53
2022/03/23 00:03:58;;;;;;;30.33;22.67;;;7.20;1.00;;;;;;6283676;28;20569;-55
2022/03/23 00:07:01;;;;;;;30.77;22.90;;;7.20;1.00;;;;;;6284254;28;20689;-55
2022/03/23 00:10:05;;;;;;;28.93;22.23;;;7.20;1.00;;;;;;6285246;28;20229;-54
2022/03/23 00:13:08;;;;;;;25.20;21.77;;;7.20;1.00;;;;;;6278767;28;20225;-56
2022/03/23 00:16:13;;;;;;;29.80;22.13;;;7.10;1.00;;;;;;6284809;28;20874;-54
2022/03/23 00:19:16;;;;;;;27.10;21.60;;;7.20;1.00;;;;;;6285581;28;20236;-56
2022/03/23 00:22:20;;;;;;;25.77;20.80;;;7.10;1.00;;;;;;6276652;28;20323;-54
2022/03/23 00:25:23;;;;;;;24.37;20.10;;;7.00;1.00;;;;;;6284100;28;20321;-54
2022/03/23 00:28:26;;;;;;;25.37;21.23;;;7.20;1.00;;;;;;6285251;28;20240;-55
2022/03/23 00:31:31;;;;;;;29.53;22.20;;;7.00;1.00;;;;;;6285361;28;20737;-55
2022/03/23 00:34:34;;;;;;;24.73;21.17;;;7.00;1.00;;;;;;6279088;28;20238;-55
2022/03/23 00:37:37;;;;;;;25.43;21.87;;;7.00;1.00;;;;;;6285693;28;20248;-54
2022/03/23 00:40:40;;;;;;;29.17;22.13;;;6.90;1.00;;;;;;6285799;28;20768;-54
2022/03/23 00:43:43;;;;;;;24.37;21.13;;;6.90;1.00;;;;;;6280976;28;20508;-55
2022/03/23 00:46:48;;;;;;;22.97;20.33;;;7.10;1.00;;;;;;6282150;28;20237;-55
2022/03/23 00:49:50;;;;;;;26.13;20.93;;;6.90;1.00;;;;;;6279474;28;20713;-55
2022/03/23 00:52:53;;;;;;;27.00;20.93;;;6.80;1.00;;;;;;6270941;28;20240;-56
2022/03/23 00:55:56;;;;;;;27.27;20.60;;;7.00;1.00;;;;;;6278269;28;20256;-55
2022/03/23 00:58:59;;;;;;;25.80;20.57;;;6.80;1.00;;;;;;6283933;28;20264;-55
2022/03/23 01:02:05;;;;;;;26.00;21.73;;;6.70;1.00;;;;;;6283746;28;20248;-55
2022/03/23 01:05:09;;;;;;;24.53;20.27;;;6.70;1.00;;;;;;6284791;28;20240;-55
2022/03/23 01:08:12;;;;;;;25.13;19.87;;;6.70;1.00;;;;;;6285014;28;20716;-55
2022/03/23 01:11:15;;;;;;;31.37;21.90;;;6.70;1.00;;;;;;6278221;28;20252;-55
2022/03/23 01:14:19;;;;;;;23.43;20.93;;;6.70;1.00;;;;;;6285089;28;20240;-54
2022/03/23 01:17:23;;;;;;;21.87;19.40;;;6.60;1.00;;;;;;6278530;28;20491;-54
2022/03/23 01:20:26;;;;;;;24.33;19.27;;;6.50;1.00;;;;;;6282191;28;20286;-53
2022/03/23 01:23:29;;;;;;;23.57;19.57;;;6.70;1.00;;;;;;6283609;28;20237;-55
2022/03/23 01:26:31;;;;;;;25.73;19.20;;;6.70;1.00;;;;;;6285180;28;20245;-55
2022/03/23 01:29:34;;;;;;;27.10;20.47;;;6.70;1.00;;;;;;6278073;28;20297;-54
2022/03/23 01:32:39;;;;;;;26.33;21.20;;;6.80;1.00;;;;;;6283238;28;20325;-55
2022/03/23 01:35:42;;;;;;;25.47;20.87;;;6.50;1.00;;;;;;6283539;28;20300;-55
2022/03/23 01:38:44;;;;;;;26.10;20.70;;;6.70;1.00;;;;;;6282058;28;20792;-55
2022/03/23 01:41:48;;;;;;;28.80;21.17;;;6.50;1.00;;;;;;6283703;28;20229;-55
2022/03/23 01:44:50;;;;;;;26.10;20.80;;;6.30;1.00;;;;;;6278397;28;20274;-55
2022/03/23 01:47:54;;;;;;;24.17;18.70;;;6.40;1.00;;;;;;6292793;28;20345;-54
2022/03/23 01:50:57;;;;;;;22.20;18.53;;;6.60;1.00;;;;;;6298940;28;20249;-55
2022/03/23 01:54:00;;;;;;;22.17;17.93;;;6.50;1.00;;;;;;6288291;28;20290;-55
2022/03/23 01:57:04;;;;;;;22.90;18.77;;;6.50;1.00;;;;;;6284177;28;20328;-57
2022/03/23 02:00:08;;;;;;;21.43;18.37;;;6.40;1.00;;;;;;6278404;28;20320;-55
2022/03/23 02:03:13;;;;;;;21.87;19.53;;;6.40;1.00;;;;;;6282961;28;20239;-55
2022/03/23 02:06:16;;;;;;;21.87;18.27;;;6.60;1.00;;;;;;6283554;28;20302;-55
2022/03/23 02:09:19;;;;;;;22.90;19.43;;;6.30;1.00;;;;;;6282571;28;20697;-55
2022/03/23 02:12:22;;;;;;;21.97;18.37;;;6.30;1.00;;;;;;6298479;28;20225;-54
2022/03/23 02:15:26;;;;;;;21.83;18.30;;;6.40;1.00;;;;;;6305954;28;20813;-54
2022/03/23 02:18:30;;;;;;;23.43;19.17;;;6.40;1.00;;;;;;6291335;28;20300;-53
2022/03/23 02:21:34;;;;;;;20.40;18.00;;;6.30;1.00;;;;;;6292738;28;20233;-55
2022/03/23 02:24:39;;;;;;;22.70;19.27;;;6.30;1.00;;;;;;6282318;28;20712;-54
2022/03/23 02:27:42;;;;;;;27.57;19.87;;;6.30;1.00;;;;;;6253026;28;20408;-53
2022/03/23 02:30:45;;;;;;;22.93;19.57;;;6.30;1.00;;;;;;6260822;28;20243;-53
2022/03/23 02:33:48;;;;;;;23.17;19.63;;;6.10;1.00;;;;;;6281446;28;20487;-56
2022/03/23 02:36:51;;;;;;;24.63;19.23;;;6.30;1.00;;;;;;6279792;28;20751;-55
2022/03/23 02:39:55;;;;;;;22.13;19.03;;;6.40;1.00;;;;;;6283420;28;20853;-55
2022/03/23 02:42:59;;;;;;;29.00;21.30;;;6.30;1.00;;;;;;6280313;28;20225;-55
2022/03/23 02:46:03;;;;;;;23.07;20.00;;;6.20;1.00;;;;;;6281359;28;20248;-53
2022/03/23 02:49:06;;;;;;;24.87;19.23;;;6.10;1.00;;;;;;6282969;28;20233;-55
2022/03/23 02:52:09;;;;;;;21.63;18.93;;;6.20;1.00;;;;;;6284524;28;20253;-54
2022/03/23 03:02:13;;;;;;;24.47;18.97;;;6.30;1.00;;;;;;6273367;28;20263;-54
2022/03/23 03:05:16;;;;;;;22.23;18.17;;;6.30;1.00;;;;;;6278122;28;20241;-55
2022/03/23 03:11:42;;;;;;;24.40;19.00;;;6.00;1.00;;;;;;6282659;28;20658;-55
2022/03/23 03:14:45;;;;;;;26.40;19.60;;;6.00;1.00;;;;;;6275344;28;20323;-54
2022/03/23 03:17:48;;;;;;;23.70;18.23;;;5.80;1.00;;;;;;6281829;28;20773;-54
2022/03/23 03:20:51;;;;;;;21.73;18.67;;;6.00;1.00;;;;;;6282217;28;20693;-54
2022/03/23 03:23:53;;;;;;;19.90;17.60;;;5.90;1.00;;;;;;6281098;28;20286;-54
2022/03/23 03:26:58;;;;;;;22.83;19.27;;;5.70;1.00;;;;;;6283424;28;20233;-54
2022/03/23 03:30:00;;;;;;;20.37;17.43;;;5.80;1.00;;;;;;6282098;28;20325;-55
2022/03/23 03:33:03;;;;;;;22.20;19.20;;;5.80;1.00;;;;;;6274889;28;20737;-54
2022/03/23 03:36:07;;;;;;;23.80;19.40;;;6.00;1.00;;;;;;6276963;28;20721;-56
2022/03/23 03:39:10;;;;;;;24.83;19.07;;;5.60;1.00;;;;;;6282251;28;20256;-56
2022/03/23 03:42:14;;;;;;;22.70;18.63;;;5.70;1.00;;;;;;6278639;28;20239;-56
2022/03/23 03:45:16;;;;;;;22.70;18.77;;;5.80;1.00;;;;;;6285864;28;20233;-55
2022/03/23 03:48:19;;;;;;;28.27;20.67;;;5.60;1.00;;;;;;6287530;28;20238;-54
2022/03/23 03:51:22;;;;;;;24.57;19.73;;;5.70;1.00;;;;;;6283368;28;20287;-54
2022/03/23 03:54:25;;;;;;;26.67;20.53;;;5.70;1.00;;;;;;6285284;28;20614;-54
2022/03/23 03:57:29;;;;;;;24.27;20.50;;;5.60;1.00;;;;;;6286088;28;20459;-52
2022/03/23 04:00:34;;;;;;;25.13;20.57;;;5.60;1.00;;;;;;6286404;28;20690;-54
2022/03/23 04:03:37;;;;;;;26.50;21.50;;;5.50;1.00;;;;;;6286703;28;20312;-55
2022/03/23 04:06:39;;;;;;;29.13;20.67;;;5.50;1.00;;;;;;6286197;28;20237;-54
2022/03/23 04:09:42;;;;;;;26.57;20.37;;;5.40;1.00;;;;;;6281570;28;20299;-54
2022/03/23 04:12:46;;;;;;;31.13;20.93;;;5.40;1.00;;;;;;6281608;28;20320;-55
2022/03/23 04:15:50;;;;;;;23.83;19.23;;;5.30;1.00;;;;;;6300378;28;20271;-53
2022/03/23 04:18:53;;;;;;;21.73;18.97;;;5.40;1.00;;;;;;6304829;28;20714;-54
2022/03/23 04:21:55;;;;;;;27.70;20.47;;;5.30;1.00;;;;;;6308977;28;20236;-55
2022/03/23 04:24:58;;;;;;;22.63;20.03;;;5.50;1.00;;;;;;6312155;28;20721;-54
2022/03/23 04:28:02;;;;;;;23.40;20.03;;;5.50;1.00;;;;;;6304172;28;20247;-55
2022/03/23 04:31:06;;;;;;;26.13;20.60;;;5.30;1.00;;;;;;6307737;28;20283;-54
2022/03/23 04:34:09;;;;;;;24.17;19.57;;;5.30;1.00;;;;;;6295521;28;20236;-54
2022/03/23 04:37:12;;;;;;;24.10;19.67;;;5.60;1.00;;;;;;6305932;28;20237;-55
2022/03/23 04:40:16;;;;;;;26.33;19.53;;;5.10;1.00;;;;;;6304519;28;20233;-55
2022/03/23 04:43:20;;;;;;;22.67;19.07;;;5.00;1.00;;;;;;6308777;28;20700;-54
2022/03/23 04:46:23;;;;;;;24.33;19.77;;;5.30;1.00;;;;;;6310223;28;20333;-55
2022/03/23 04:49:26;;;;;;;24.33;18.77;;;5.40;1.00;;;;;;6306428;28;20232;-55
2022/03/23 04:52:29;;;;;;;23.90;19.80;;;5.10;1.00;;;;;;6307942;28;20239;-54
2022/03/23 04:55:32;;;;;;;23.60;17.93;;;5.40;1.00;;;;;;6308450;28;20294;-55
2022/03/23 04:58:36;;;;;;;26.60;20.33;;;5.10;1.00;;;;;;6310389;28;20703;-54
2022/03/23 05:01:39;;;;;;;26.63;19.67;;;5.30;1.00;;;;;;6306857;28;20240;-53
2022/03/23 05:04:43;;;;;;;23.73;20.20;;;5.20;1.00;;;;;;6310610;28;20314;-54
2022/03/23 05:07:46;;;;;;;27.37;19.90;;;5.20;1.00;;;;;;6299078;28;20817;-54
2022/03/23 05:10:49;;;;;;;23.67;19.63;;;5.20;1.00;;;;;;6306727;28;20240;-55
2022/03/23 05:13:53;;;;;;;24.30;19.00;;;5.10;1.00;;;;;;6307277;28;20240;-55
2022/03/23 05:16:56;;;;;;;26.50;20.33;;;4.90;1.00;;;;;;6299260;28;20239;-55
2022/03/23 05:19:59;;;;;;;26.80;21.63;;;5.10;1.00;;;;;;6307975;28;20229;-55
2022/03/23 05:23:02;;;;;;;25.13;19.70;;;5.30;1.00;;;;;;6308428;28;20289;-55
2022/03/23 05:26:05;;;;;;;25.27;20.37;;;5.20;1.00;;;;;;6305927;28;20256;-54
2022/03/23 05:29:13;;;;;;;26.33;19.83;;;5.20;1.00;;;;;;6307459;28;20251;-56
2022/03/23 05:32:17;;;;;;;21.40;18.43;;;5.10;1.00;;;;;;6302290;28;20286;-54
2022/03/23 05:35:20;;;;;;;21.40;17.77;;;5.10;1.00;;;;;;6305159;28;20248;-53
2022/03/23 05:38:23;;;;;;;24.40;18.60;;;5.30;1.00;;;;;;6303092;28;20316;-55
2022/03/23 05:41:27;;;;;;;22.43;18.77;;;5.30;1.00;;;;;;6302567;28;20231;-55
2022/03/23 05:44:31;;;;;;;21.63;18.73;;;5.30;1.00;;;;;;6304261;28;20315;-55
2022/03/23 05:47:34;;;;;;;21.17;17.63;;;5.30;1.00;;;;;;6303192;28;20719;-54
2022/03/23 05:50:37;;;;;;;21.27;17.97;;;5.40;1.00;;;;;;6306197;28;20336;-54
2022/03/23 05:53:40;;;;;;;20.17;17.87;;;5.40;1.00;;;;;;6307982;28;20331;-54
2022/03/23 05:56:42;;;;;;;21.03;18.27;;;5.30;1.00;;;;;;6302759;28;20232;-58
2022/03/23 05:59:47;;;;;;;27.43;18.90;;;5.60;1.00;;;;;;6306774;28;20761;-54
2022/03/23 06:02:50;;;;;;;27.27;21.20;;;5.70;1.00;;;;;;6306696;28;20388;-55
2022/03/23 06:05:53;;;;;;;28.77;20.23;;;5.60;1.00;;;;;;6304902;28;20243;-55
2022/03/23 06:08:55;;;;;;;30.27;21.87;;;5.80;1.00;;;;;;6307028;28;20321;-54
2022/03/23 06:11:58;;;;;;;31.80;22.80;;;5.80;1.00;;;;;;6307424;28;20315;-54
2022/03/23 06:15:08;;;;;;;32.10;22.13;;;5.80;1.00;;;;;;6302122;28;20391;-54
2022/03/23 06:18:11;;;;;;;33.00;23.00;;;6.10;1.00;;;;;;6294448;28;20232;-55
2022/03/23 06:21:14;;;;;;;27.20;20.97;;;6.20;1.00;;;;;;6305991;28;20225;-55
2022/03/23 06:24:16;;;;;;;32.90;21.80;;;6.20;1.00;;;;;;6304171;28;20768;-54
2022/03/23 06:27:19;;;;;;;30.13;21.27;;;6.20;1.00;;;;;;6302149;28;20225;-50
2022/03/23 06:30:23;;;;;;;32.53;23.20;;;6.30;1.00;;;;;;6307111;28;20320;-53
2022/03/23 06:33:26;;;;;;;33.77;22.57;;;6.60;1.00;;;;;;6297577;28;20833;-54
2022/03/23 06:36:29;;;;;;;33.00;23.40;;;6.60;1.00;;;;;;6307213;28;20240;-54
2022/03/23 06:39:32;;;;;;;31.30;22.70;;;6.90;1.00;;;;;;6307877;28;20382;-54
2022/03/23 06:42:35;;;;;;;30.73;22.57;;;6.80;1.00;;;;;;6305387;28;20232;-55
2022/03/23 06:45:40;;;;;;;28.23;21.77;;;7.00;1.00;;;;;;6302474;28;20332;-53
2022/03/23 06:48:43;;;;;;;26.17;21.47;;;7.10;1.00;;;;;;6305124;28;20270;-55
2022/03/23 06:51:46;;;;;;;33.33;23.07;;;7.20;1.00;;;;;;6300520;28;20237;-59
2022/03/23 06:54:49;;;;;;;34.63;23.20;;;7.40;1.00;;;;;;6305474;28;20323;-54
2022/03/23 06:57:52;;;;;;;41.37;23.70;;;7.50;1.00;;;;;;6302937;28;20229;-55
2022/03/23 07:00:57;;;;;;;31.57;23.07;;;7.60;1.00;;;;;;6307805;28;20297;-55
2022/03/23 07:04:00;;;;;;;32.53;22.40;;;7.60;1.00;;;;;;6306685;28;20394;-53
2022/03/23 07:07:03;;;;;;;28.70;22.43;;;7.70;1.00;;;;;;6307632;28;20229;-55
2022/03/23 07:10:06;;;;;;;28.37;23.07;;;7.80;1.00;;;;;;6294303;28;20260;-54
2022/03/23 07:13:08;;;;;;;29.57;23.67;;;8.20;1.00;;;;;;6304952;28;20243;-54
2022/03/23 07:16:12;;;;;;;36.43;23.13;;;8.40;1.00;;;;;;6302493;28;20237;-54
2022/03/23 07:19:15;;;;;;;31.90;23.00;;;8.50;1.00;;;;;;6311335;28;20579;-54
2022/03/23 07:22:18;;;;;;;35.73;22.37;;;8.50;1.00;;;;;;6312786;28;20237;-56
2022/03/23 07:25:21;;;;;;;30.93;22.67;;;8.60;1.00;;;;;;6309704;28;20264;-54
2022/03/23 07:28:24;;;;;;;26.43;21.83;;;8.80;1.00;;;;;;6312425;28;20229;-55
2022/03/23 07:31:28;;;;;;;29.40;23.53;;;8.80;1.00;;;;;;6301823;28;20480;-55
2022/03/23 07:34:31;;;;;;;32.67;23.00;;;9.00;1.00;;;;;;6306677;28;20245;-55
2022/03/23 07:37:34;;;;;;;28.10;21.87;;;9.60;1.00;;;;;;6310895;28;20762;-55
2022/03/23 07:40:37;;;;;;;31.60;23.17;;;9.90;1.00;;;;;;6313649;28;20382;-54
2022/03/23 07:43:40;;;;;;;37.70;23.27;;;9.90;1.00;;;;;;6302217;28;20710;-55
2022/03/23 07:46:44;;;;;;;30.77;22.30;;;9.90;1.00;;;;;;6311097;28;20238;-54
2022/03/23 07:49:46;;;;;;;33.33;21.73;;;9.90;1.00;;;;;;6298537;28;20228;-50
2022/03/23 07:52:49;;;;;;;31.50;20.33;;;9.90;1.00;;;;;;6306968;28;20306;-52
2022/03/23 07:55:52;;;;;;;35.17;20.43;;;9.90;1.00;;;;;;6312221;28;20485;-54
2022/03/23 07:58:55;;;;;;;30.23;21.63;;;10.00;1.00;;;;;;6300759;28;20628;-54
2022/03/23 08:01:59;;;;;;;28.83;20.80;;;10.00;1.00;;;;;;6301573;28;20228;-54
2022/03/23 08:05:02;;;;;;;27.93;20.17;;;9.90;1.00;;;;;;6312189;28;20644;-54
2022/03/23 08:08:07;;;;;;;33.87;20.30;;;10.00;1.00;;;;;;6310540;28;20520;-54
2022/03/23 08:11:11;;;;;;;25.00;20.40;;;10.10;1.00;;;;;;6304498;28;20578;-54
2022/03/23 08:14:13;;;;;;;22.27;19.93;;;10.20;1.00;;;;;;6309272;28;20520;-54
2022/03/23 08:17:17;;;;;;;25.27;18.00;;;10.40;1.00;;;;;;6307494;28;20377;-53
2022/03/23 08:23:42;;;;;;;24.27;18.23;;;10.60;1.00;;;;;;6306782;28;20761;-53
2022/03/23 08:26:45;;;;;;;23.10;18.10;;;10.70;1.00;;;;;;6311489;28;20289;-53
2022/03/23 08:29:48;;;;;;;22.70;18.73;;;10.90;1.00;;;;;;6310672;28;20235;-54
2022/03/23 08:32:52;;;;;;;21.23;17.73;;;11.00;1.00;;;;;;6308143;28;20225;-54
2022/03/23 08:35:55;;;;;;;22.73;18.13;;;11.10;1.00;;;;;;6309522;28;20335;-53
2022/03/23 08:38:58;;;;;;;28.73;17.97;;;11.30;1.00;;;;;;6308099;28;20235;-56
2022/03/23 08:42:01;;;;;;;25.73;18.10;;;11.50;1.00;;;;;;6310590;28;20382;-54
2022/03/23 08:45:04;;;;;;;26.63;19.90;;;11.70;1.00;;;;;;6310488;28;20387;-56
2022/03/23 08:48:09;;;;;;;28.00;18.77;;;11.70;1.00;;;;;;6310832;28;20709;-55
2022/03/23 08:51:12;;;;;;;25.90;18.83;;;11.80;1.00;;;;;;6304723;28;20586;-54
2022/03/23 08:54:15;;;;;;;22.47;18.90;;;12.00;1.00;;;;;;6306167;28;20303;-53
2022/03/23 08:57:18;;;;;;;24.07;19.17;;;12.10;1.00;;;;;;6307805;28;20322;-56
2022/03/23 09:00:21;;;;;;;28.13;19.67;;;12.30;1.00;;;;;;6304743;28;20232;-55
2022/03/23 09:03:26;;;;;;;24.00;17.90;;;12.50;1.00;;;;;;6302774;28;20293;-55
2022/03/23 09:06:29;;;;;;;20.97;17.57;;;12.60;1.00;;;;;;6300244;28;20741;-54
2022/03/23 09:09:32;;;;;;;28.47;20.63;;;12.70;1.00;;;;;;6308826;28;20236;-54
2022/03/23 09:12:36;;;;;;;25.77;19.53;;;12.90;1.00;;;;;;6305374;28;20232;-56
2022/03/23 09:15:39;;;;;;;29.97;20.17;;;13.10;1.00;;;;;;6307432;28;20785;-54
2022/03/23 09:18:43;;;;;;;32.13;21.10;;;13.20;1.00;;;;;;6309101;28;20236;-56
2022/03/23 09:21:46;;;;;;;32.13;21.20;;;13.40;1.00;;;;;;6305180;28;20327;-54
2022/03/23 09:24:50;;;;;;;23.67;18.93;;;13.60;1.00;;;;;;6304336;28;20373;-54
2022/03/23 09:27:53;;;;;;;29.77;19.87;;;13.70;1.00;;;;;;6305967;28;20308;-54
2022/03/23 09:30:56;;;;;;;25.23;20.47;;;13.90;1.00;;;;;;6309779;28;20286;-55
2022/03/23 09:34:02;;;;;;;26.93;19.60;;;13.90;1.00;;;;;;6302786;28;20670;-51
2022/03/23 09:40:30;;;;;;;24.53;19.13;;;14.10;1.00;;;;;;6301712;28;20398;-54
2022/03/23 09:43:35;;;;;;;22.93;19.17;;;14.20;1.00;;;;;;6284329;28;20368;-53
2022/03/23 09:46:38;;;;;;;21.57;19.33;;;14.40;1.00;;;;;;6293705;28;20252;-53
2022/03/23 09:49:43;;;;;;;26.60;21.03;;;14.50;1.00;;;;;;6309325;28;20266;-53
2022/03/23 09:52:46;;;;;;;27.20;20.67;;;14.70;1.00;;;;;;6307399;28;20294;-55
2022/03/23 09:55:49;;;;;;;21.53;19.23;;;14.70;1.00;;;;;;6299877;28;20323;-54
2022/03/23 09:58:52;;;;;;;25.50;20.83;;;14.90;1.00;;;;;;6308039;28;20238;-55
2022/03/23 10:02:49;;;;;;;24.43;20.47;;;15.10;1.00;;;;;;6308283;28;20698;-56
2022/03/23 10:06:17;;;;;;;24.13;20.03;;;15.20;1.00;;;;;;6307497;28;20232;-53
2022/03/23 10:09:54;;;;;;;33.00;21.60;;;15.40;1.00;;;;;;6302483;28;20820;-56
2022/03/23 10:13:47;;;;;;;26.20;19.50;;;15.60;1.00;;;;;;6302076;28;20251;-54
2022/03/23 10:17:33;;;;;;;23.27;20.80;;;15.90;1.00;;;;;;6307169;28;20229;-55
2022/03/23 10:20:37;;;;;;;26.53;21.70;;;16.00;1.00;;;;;;6297447;28;20707;-55
2022/03/23 10:24:11;;;;;;;26.07;22.03;;;16.20;1.00;;;;;;6297637;28;20352;-55
2022/03/23 10:27:17;;;;;;;28.57;22.77;;;16.40;1.00;;;;;;6304808;28;20685;-54
2022/03/23 10:30:20;;;;;;;29.80;21.03;;;16.50;1.00;;;;;;6304207;28;20229;-55
2022/03/23 10:33:24;;;;;;;24.73;21.90;;;16.70;1.00;;;;;;6307085;28;20319;-55
2022/03/23 10:36:27;;;;;;;26.40;21.10;;;16.80;1.00;;;;;;6302418;28;20591;-55
2022/03/23 10:39:32;;;;;;;27.27;21.37;;;16.90;1.00;;;;;;6301235;28;20237;-55
2022/03/23 10:42:38;;;;;;;24.20;21.60;;;17.10;1.00;;;;;;6302926;28;20234;-55
2022/03/23 10:45:46;;;;;;;25.10;20.20;;;17.30;1.00;;;;;;6301845;28;20242;-54
2022/03/23 10:48:51;;;;;;;25.23;21.17;;;17.50;1.00;;;;;;6298428;28;20315;-55
2022/03/23 10:51:56;;;;;;;26.00;20.47;;;17.70;1.00;;;;;;6299302;28;20557;-55
2022/03/23 10:55:03;;;;;;;28.13;21.90;;;17.90;1.00;;;;;;6304512;28;20382;-55
2022/03/23 10:58:27;;;;;;;23.20;20.63;;;17.90;1.00;;;;;;6305513;28;20225;-56
2022/03/23 11:01:31;;;;;;;24.97;20.57;;;18.10;1.00;;;;;;6303077;28;20249;-55
2022/03/23 11:04:46;;;;;;;25.73;19.97;;;18.20;1.00;;;;;;6308034;28;20285;-54
2022/03/23 11:07:49;;;;;;;23.33;19.60;;;18.30;1.00;;;;;;6298751;28;20592;-57
2022/03/23 11:17:40;;;;;;;27.60;20.60;;;18.60;1.00;;;;;;6291118;28;20435;-54
2022/03/23 11:20:46;;;;;;;24.50;19.57;;;18.60;1.00;;;;;;6303552;28;20233;-56
2022/03/23 11:23:49;;;;;;;27.80;20.30;;;18.60;1.00;;;;;;6306922;28;20325;-55
2022/03/23 11:26:55;;;;;;;22.77;20.37;;;18.70;1.00;;;;;;6300981;28;20429;-56
2022/03/23 11:29:58;;;;;;;23.17;20.80;;;18.90;1.00;;;;;;6303154;28;20709;-54
2022/03/23 11:33:01;;;;;;;25.57;21.70;;;18.80;1.00;;;;;;6306379;28;20741;-56
2022/03/23 11:36:08;;;;;;;24.57;20.63;;;18.90;1.00;;;;;;6302824;28;20232;-55
2022/03/23 11:39:11;;;;;;;26.87;21.50;;;18.80;1.00;;;;;;6299898;28;20259;-55
2022/03/23 11:42:17;;;;;;;24.63;20.87;;;18.80;1.00;;;;;;6305807;28;20320;-56
2022/03/23 11:45:21;;;;;;;23.33;20.80;;;19.00;1.00;;;;;;6301477;28;20375;-55
2022/03/23 11:48:37;;;;;;;28.20;20.83;;;19.10;1.00;;;;;;6300591;28;20492;-55
2022/03/23 11:52:01;;;;;;;23.17;19.60;;;19.20;1.00;;;;;;6300493;28;20241;-54
2022/03/23 11:58:37;;;;;;;24.17;19.93;;;19.40;1.00;;;;;;6298476;28;20266;-56
2022/03/23 12:01:39;;;;;;;21.10;19.00;;;19.50;1.00;;;;;;6307056;28;20262;-56
2022/03/23 12:04:42;;;;;;;20.00;18.00;;;19.60;1.00;;;;;;6298173;28;20232;-55
2022/03/23 12:07:48;;;;;;;21.37;18.97;;;19.60;1.00;;;;;;6299471;28;20711;-53
2022/03/23 12:10:51;;;;;;;24.70;19.20;;;19.80;1.00;;;;;;6311174;28;20308;-55
2022/03/23 12:13:59;;;;;;;20.83;18.63;;;19.90;1.00;;;;;;6312181;28;20366;-55
2022/03/23 12:17:09;;;;;;;20.43;18.43;;;20.00;1.00;;;;;;6306788;28;20325;-54
2022/03/23 12:20:17;;;;;;;21.07;18.97;;;20.10;1.00;;;;;;6308509;28;20499;-55
2022/03/23 12:23:36;;;;;;;25.70;20.27;;;20.00;1.00;;;;;;6311516;28;20633;-55
2022/03/23 12:26:44;;;;;;;22.40;19.47;;;20.00;1.00;;;;;;6308981;28;20236;-55
2022/03/23 12:29:50;;;;;;;23.67;20.67;;;20.10;1.00;;;;;;6302401;28;20241;-56
2022/03/23 12:32:54;;;;;;;23.77;20.07;;;20.10;1.00;;;;;;6307623;28;20737;-55
2022/03/23 12:36:00;;;;;;;22.70;20.47;;;20.00;1.00;;;;;;6306205;28;20655;-55
2022/03/23 12:39:04;;;;;;;22.90;20.50;;;20.10;1.00;;;;;;6302088;28;20237;-56
2022/03/23 12:42:18;;;;;;;22.93;20.33;;;20.10;1.00;;;;;;6309227;28;20232;-56
2022/03/23 12:45:24;;;;;;;23.00;20.50;;;20.20;1.00;;;;;;6301508;28;20720;-56
2022/03/23 12:58:36;;;;;;;22.17;20.03;;;20.40;1.00;;;;;;6301675;28;20694;-56
2022/03/23 13:01:41;;;;;;;24.80;20.17;;;20.40;1.00;;;;;;6310520;28;20445;-56
2022/03/23 13:04:52;;;;;;;24.33;20.27;;;20.40;1.00;;;;;;6308475;28;20478;-56
2022/03/23 13:07:54;;;;;;;23.20;20.77;;;20.40;1.00;;;;;;6309356;28;20689;-55
2022/03/23 13:10:59;;;;;;;26.93;22.03;;;20.50;1.00;;;;;;6309752;28;20787;-56
2022/03/23 13:14:02;;;;;;;23.97;21.40;;;20.50;1.00;;;;;;6305291;28;20232;-54
2022/03/23 13:17:07;;;;;;;32.17;22.97;;;20.60;1.00;;;;;;6307286;28;20242;-56
2022/03/23 13:20:12;;;;;;;26.53;21.80;;;20.50;1.00;;;;;;6307434;28;20340;-56
2022/03/23 13:23:17;;;;;;;25.70;22.63;;;20.20;1.00;;;;;;6309295;28;20315;-57
2022/03/23 13:26:22;;;;;;;27.17;23.93;;;20.30;1.00;;;;;;6309705;28;20499;-56
2022/03/23 13:29:25;;;;;;;29.93;23.10;;;20.30;1.00;;;;;;6308683;28;20237;-56
2022/03/23 13:32:33;;;;;;;27.33;24.07;;;20.30;1.00;;;;;;6308297;28;20409;-55
2022/03/23 13:35:43;;;;;;;34.80;24.13;;;20.30;1.00;;;;;;6305761;28;20245;-56
2022/03/23 13:38:48;;;;;;;30.43;24.40;;;20.30;1.00;;;;;;6304432;28;20427;-55
2022/03/23 13:45:20;;;;;;;26.17;23.37;;;20.00;1.00;;;;;;6271917;28;20850;-56
2022/03/23 13:48:26;;;;;;;26.10;22.67;;;20.10;1.00;;;;;;6303203;28;20232;-56
2022/03/23 13:51:34;;;;;;;25.70;23.10;;;20.20;1.00;;;;;;6310611;28;20232;-56
2022/03/23 13:54:37;;;;;;;28.23;23.87;;;20.20;1.00;;;;;;6304367;28;20335;-56
2022/03/23 13:57:40;;;;;;;25.27;22.67;;;20.30;1.00;;;;;;6309364;28;20327;-55
2022/03/23 14:00:44;;;;;;;26.93;23.60;;;20.30;1.00;;;;;;6309008;28;20543;-55
2022/03/23 14:03:49;;;;;;;29.63;22.53;;;20.30;1.00;;;;;;6305209;28;20228;-56
2022/03/23 14:06:53;;;;;;;25.77;23.23;;;20.30;1.00;;;;;;6309010;28;20555;-56
2022/03/23 14:09:58;;;;;;;28.33;24.73;;;20.40;1.00;;;;;;6308509;28;20248;-57
2022/03/23 14:13:03;;;;;;;25.43;22.77;;;20.40;1.00;;;;;;6301721;28;20252;-55
2022/03/23 14:16:26;;;;;;;27.67;23.50;;;20.40;1.00;;;;;;6301901;28;20627;-57
2022/03/23 14:19:33;;;;;;;26.37;23.43;;;20.40;1.00;;;;;;6307280;28;20228;-54
2022/03/23 14:22:37;;;;;;;28.13;23.27;;;20.50;1.00;;;;;;6309266;28;20326;-54
2022/03/23 14:25:40;;;;;;;25.93;23.33;;;20.50;1.00;;;;;;6308077;28;20623;-56
2022/03/23 14:28:46;;;;;;;28.90;24.20;;;20.40;1.00;;;;;;6304809;28;20340;-56
2022/03/23 14:31:49;;;;;;;28.30;24.87;;;20.40;1.00;;;;;;6308095;28;20424;-55
2022/03/23 14:34:53;;;;;;;28.33;24.93;;;20.40;1.00;;;;;;6303247;28;20239;-56
2022/03/23 14:37:57;;;;;;;28.03;25.10;;;20.20;1.00;;;;;;6296805;28;20260;-56
2022/03/23 14:41:02;;;;;;;34.30;25.20;;;20.20;1.00;;;;;;6297035;28;20312;-56
2022/03/23 14:44:06;;;;;;;27.27;24.20;;;20.10;1.00;;;;;;6306970;28;20319;-55
2022/03/23 14:47:09;;;;;;;34.47;25.33;;;20.20;1.00;;;;;;6308197;28;20797;-55
2022/03/23 14:50:18;;;;;;;28.83;25.77;;;20.20;1.00;;;;;;6306241;28;20233;-55
2022/03/23 14:53:25;;;;;;;28.20;25.37;;;20.20;1.00;;;;;;6306249;28;20251;-53
2022/03/23 14:56:27;;;;;;;29.13;26.07;;;20.10;1.00;;;;;;6296435;28;20874;-55
2022/03/23 14:59:31;;;;;;;30.57;25.53;;;20.10;1.00;;;;;;6293960;28;20248;-56
2022/03/23 15:02:34;;;;;;;28.33;25.23;;;20.00;1.00;;;;;;6306804;28;20247;-56
2022/03/23 15:15:55;;;;;;;28.23;24.93;;;19.70;1.00;;;;;;6215452;28;20321;-55
2022/03/23 15:18:58;;;;;;;28.30;24.30;;;19.70;1.00;;;;;;6216172;28;20249;-54
2022/03/23 15:22:04;;;;;;;27.97;23.57;;;19.60;1.00;;;;;;6298909;28;20473;-55
2022/03/23 15:25:07;;;;;;;27.27;24.33;;;19.60;1.00;;;;;;6298065;28;20319;-55
2022/03/23 15:28:10;;;;;;;28.77;24.07;;;19.50;1.00;;;;;;6306391;28;20588;-56
2022/03/23 15:31:13;;;;;;;26.90;23.83;;;19.30;1.00;;;;;;6299642;28;20463;-54
2022/03/23 15:34:16;;;;;;;26.50;23.30;;;19.20;1.00;;;;;;6304897;28;20528;-55
2022/03/23 15:37:21;;;;;;;25.40;22.50;;;19.00;1.00;;;;;;6299896;28;20233;-55
2022/03/23 15:40:25;;;;;;;24.87;21.60;;;18.90;1.00;;;;;;6307752;28;20464;-56
2022/03/23 15:43:28;;;;;;;25.53;22.00;;;18.70;1.00;;;;;;6304097;28;20240;-56
2022/03/23 15:46:31;;;;;;;24.00;21.50;;;18.50;1.00;;;;;;6299440;28;20267;-56
2022/03/23 15:49:35;;;;;;;24.20;21.63;;;18.40;1.00;;;;;;6322274;28;20271;-59
2022/03/23 15:52:40;;;;;;;24.30;20.40;;;18.20;1.00;;;;;;6306252;28;20331;-56
2022/03/23 15:55:42;;;;;;;24.47;21.87;;;18.00;1.00;;;;;;6308546;28;20518;-55
2022/03/23 15:58:46;;;;;;;24.80;21.37;;;17.90;1.00;;;;;;6304811;28;20523;-55
2022/03/23 16:01:49;;;;;;;22.40;20.20;;;17.80;1.00;;;;;;6305998;28;20235;-55
2022/03/23 16:04:53;;;;;;;22.97;20.60;;;17.70;1.00;;;;;;6299813;28;20286;-55
2022/03/23 16:07:57;;;;;;;24.00;21.40;;;17.50;1.00;;;;;;6308503;28;20734;-56
2022/03/23 16:10:59;;;;;;;21.50;19.20;;;17.40;1.00;;;;;;6301189;28;20312;-54
2022/03/23 16:14:02;;;;;;;21.13;18.93;;;17.30;1.00;;;;;;6305048;28;20271;-54
2022/03/23 16:17:05;;;;;;;20.93;18.83;;;17.10;1.00;;;;;;6303575;28;20260;-55
2022/03/23 16:20:11;;;;;;;20.23;18.27;;;17.20;1.00;;;;;;6309679;28;20236;-54
2022/03/23 16:23:15;;;;;;;22.90;18.77;;;16.90;1.00;;;;;;6306998;28;20244;-56
2022/03/23 16:26:18;;;;;;;21.70;18.97;;;16.80;1.00;;;;;;6311040;28;20247;-54
2022/03/23 16:29:20;;;;;;;24.00;19.17;;;16.70;1.00;;;;;;6304689;28;20282;-54
2022/03/23 16:32:23;;;;;;;22.00;18.70;;;16.60;1.00;;;;;;6305746;28;20282;-55
2022/03/23 16:35:26;;;;;;;21.20;18.90;;;16.50;1.00;;;;;;6307108;28;20228;-55
2022/03/23 16:38:30;;;;;;;22.83;19.60;;;16.40;1.00;;;;;;6309302;28;20289;-55
2022/03/23 16:41:37;;;;;;;23.17;18.57;;;16.30;1.00;;;;;;6309068;28;20386;-57
2022/03/23 16:44:40;;;;;;;24.50;19.33;;;16.20;1.00;;;;;;6308606;28;20260;-56